createdAt,value
2023-12-09T00:01:01.088Z,101050.59
2023-12-09T00:03:30.809Z,101058.19
2023-12-09T00:06:03.062Z,101071.22
2023-12-09T00:08:32.665Z,101085.13
2023-12-09T00:11:02.335Z,101092.06
2023-12-09T00:13:31.877Z,101097.13
2023-12-09T00:16:01.508Z,101104.34
2023-12-09T00:18:31.175Z,101108.25
2023-12-09T00:21:04.120Z,101120.41
2023-12-09T00:23:33.708Z,101115.88
2023-12-09T00:26:03.328Z,101117.66
2023-12-09T00:28:32.890Z,101121.41
2023-12-09T00:31:02.414Z,101143.63
2023-12-09T00:33:32.054Z,101146.53
2023-12-09T00:36:04.277Z,101142.56
2023-12-09T00:38:33.841Z,101144.47
2023-12-09T00:41:03.486Z,101141.94
2023-12-09T00:43:32.996Z,101141.59
2023-12-09T00:46:02.529Z,101143.78
2023-12-09T00:48:32.202Z,101136.63
2023-12-09T00:51:04.542Z,101132.59
2023-12-09T00:53:34.143Z,101132.94
2023-12-09T00:56:03.757Z,101138.81
2023-12-09T00:58:33.313Z,101151.19
2023-12-09T01:01:03.106Z,101145.34
2023-12-09T01:03:32.865Z,101154.50
2023-12-09T01:06:05.091Z,101154.28
2023-12-09T01:08:34.655Z,101151.97
2023-12-09T01:11:04.208Z,101149.59
2023-12-09T01:13:33.927Z,101156.81
2023-12-09T01:16:04.249Z,101159.69
2023-12-09T01:18:33.833Z,101164.00
2023-12-09T01:21:06.288Z,101154.56
2023-12-09T01:23:35.825Z,101163.59
2023-12-09T01:26:05.431Z,101159.97
2023-12-09T01:28:34.961Z,101157.59
2023-12-09T01:31:04.507Z,101158.44
2023-12-09T01:33:34.241Z,101168.84
2023-12-09T01:36:07.174Z,101177.84
2023-12-09T01:38:36.729Z,101171.94
2023-12-09T01:41:06.546Z,101168.41
2023-12-09T01:43:36.494Z,101168.16
2023-12-09T01:46:09.605Z,101157.41
2023-12-09T01:48:40.068Z,101155.00
2023-12-09T01:51:12.994Z,101144.69
2023-12-09T01:53:42.720Z,101145.47
2023-12-09T01:56:14.759Z,101140.84
2023-12-09T01:58:44.364Z,101139.31
2023-12-09T02:01:14.246Z,101123.28
2023-12-09T02:03:44.252Z,101130.53
2023-12-09T02:06:16.502Z,101126.13
2023-12-09T02:08:46.269Z,101125.22
2023-12-09T02:11:22.448Z,101114.53
2023-12-09T02:14:00.970Z,101109.97
2023-12-09T02:16:35.948Z,101106.84
2023-12-09T02:19:07.860Z,101106.28
2023-12-09T02:22:07.583Z,101105.22
2023-12-09T02:24:39.886Z,101090.16
2023-12-09T02:27:14.637Z,101090.44
2023-12-09T02:29:53.773Z,101092.94
2023-12-09T02:32:27.472Z,101096.00
2023-12-09T02:34:57.975Z,101094.78
2023-12-09T02:37:28.273Z,101096.13
2023-12-09T02:40:01.049Z,101096.88
2023-12-09T02:42:30.947Z,101105.41
2023-12-09T02:45:00.805Z,101105.53
2023-12-09T02:47:30.535Z,101101.56
2023-12-09T02:50:00.195Z,101103.34
2023-12-09T02:52:30.145Z,101109.16
2023-12-09T02:55:02.395Z,101107.75
2023-12-09T02:57:31.983Z,101119.16
2023-12-09T03:00:01.873Z,101112.78
2023-12-09T03:02:31.513Z,101121.88
2023-12-09T03:05:01.345Z,101128.38
2023-12-09T03:07:31.187Z,101118.03
2023-12-09T03:10:03.376Z,101134.44
2023-12-09T03:12:32.978Z,101130.63
2023-12-09T03:15:06.753Z,101126.25
2023-12-09T03:17:36.840Z,101122.88
2023-12-09T03:20:09.792Z,101129.34
2023-12-09T03:22:39.596Z,101126.78
2023-12-09T03:25:12.565Z,101127.94
2023-12-09T03:27:42.172Z,101127.03
2023-12-09T03:30:12.773Z,101125.97
2023-12-09T03:32:42.433Z,101134.50
2023-12-09T03:35:13.598Z,101135.50
2023-12-09T03:37:43.144Z,101133.34
2023-12-09T03:40:16.202Z,101135.75
2023-12-09T03:42:45.750Z,101131.56
2023-12-09T03:45:15.456Z,101131.44
2023-12-09T03:47:45.701Z,101139.44
2023-12-09T03:50:15.394Z,101139.94
2023-12-09T03:52:44.913Z,101136.91
2023-12-09T03:55:18.073Z,101133.34
2023-12-09T03:57:47.815Z,101132.84
2023-12-09T04:00:18.443Z,101134.13
2023-12-09T04:02:48.179Z,101130.34
2023-12-09T04:05:17.918Z,101129.06
2023-12-09T04:07:47.615Z,101128.81
2023-12-09T04:10:19.822Z,101128.03
2023-12-09T04:12:52.120Z,101122.81
2023-12-09T04:15:21.755Z,101128.09
2023-12-09T04:17:51.391Z,101128.56
2023-12-09T04:20:21.218Z,101128.56
2023-12-09T04:22:51.145Z,101126.56
2023-12-09T04:25:23.333Z,101130.09
2023-12-09T04:27:52.868Z,101136.56
2023-12-09T04:30:23.280Z,101132.50
2023-12-09T04:32:52.892Z,101126.47
2023-12-09T04:35:22.500Z,101120.22
2023-12-09T04:37:52.009Z,101121.78
2023-12-09T04:40:24.293Z,101122.03
2023-12-09T04:42:53.866Z,101122.44
2023-12-09T04:45:23.912Z,101119.75
2023-12-09T04:47:53.737Z,101119.75
2023-12-09T04:50:24.293Z,101128.53
2023-12-09T04:52:53.839Z,101128.38
2023-12-09T04:55:26.076Z,101136.00
2023-12-09T04:57:55.608Z,101130.44
2023-12-09T05:00:25.759Z,101123.19
2023-12-09T05:02:55.352Z,101134.50
2023-12-09T05:05:24.964Z,101138.09
2023-12-09T05:07:54.543Z,101137.19
2023-12-09T05:10:26.687Z,101133.25
2023-12-09T05:12:56.182Z,101127.53
2023-12-09T05:15:25.757Z,101132.25
2023-12-09T05:17:55.428Z,101121.06
2023-12-09T05:20:25.964Z,101112.81
2023-12-09T05:22:55.535Z,101109.13
2023-12-09T05:25:27.673Z,101100.72
2023-12-09T05:27:57.482Z,101093.06
2023-12-09T05:30:27.140Z,101092.84
2023-12-09T05:32:57.780Z,101076.03
2023-12-09T05:35:27.554Z,101073.75
2023-12-09T05:37:57.098Z,101076.91
2023-12-09T05:40:30.379Z,101057.47
2023-12-09T05:43:00.908Z,101047.00
2023-12-09T05:45:30.497Z,101044.59
2023-12-09T05:48:00.371Z,101039.38
2023-12-09T05:50:30.054Z,101035.56
2023-12-09T05:53:02.330Z,101040.28
2023-12-09T05:55:34.746Z,101048.56
2023-12-09T05:58:04.304Z,101043.56
2023-12-09T06:00:36.840Z,101033.50
2023-12-09T06:03:06.945Z,101034.13
2023-12-09T06:05:36.529Z,101033.00
2023-12-09T06:08:06.541Z,101033.72
2023-12-09T06:10:38.634Z,101027.00
2023-12-09T06:13:08.280Z,101039.47
2023-12-09T06:15:37.873Z,101044.69
2023-12-09T06:18:07.664Z,101045.47
2023-12-09T06:20:37.257Z,101055.38
2023-12-09T06:23:06.870Z,101056.28
2023-12-09T06:25:38.984Z,101053.81
2023-12-09T06:28:08.520Z,101050.13
2023-12-09T06:30:38.167Z,101046.44
2023-12-09T06:33:08.006Z,101046.66
2023-12-09T06:35:37.621Z,101046.81
2023-12-09T06:38:07.192Z,101046.31
2023-12-09T06:40:39.335Z,101050.50
2023-12-09T06:43:08.875Z,101047.31
2023-12-09T06:45:38.612Z,101047.09
2023-12-09T06:48:08.867Z,101054.59
2023-12-09T06:50:39.292Z,101051.75
2023-12-09T06:53:13.192Z,101054.84
2023-12-09T06:55:45.350Z,101051.75
2023-12-09T06:58:14.909Z,101048.44
2023-12-09T07:00:44.684Z,101041.84
2023-12-09T07:03:14.881Z,101042.06
2023-12-09T07:05:44.645Z,101034.34
2023-12-09T07:08:15.608Z,101039.13
2023-12-09T07:10:50.144Z,101028.19
2023-12-09T07:13:20.141Z,101043.69
2023-12-09T07:15:49.700Z,101038.50
2023-12-09T07:18:20.352Z,101034.53
2023-12-09T07:20:50.121Z,101029.16
2023-12-09T07:23:19.682Z,101030.56
2023-12-09T07:25:51.908Z,101036.00
2023-12-09T07:28:21.476Z,101042.81
2023-12-09T07:30:50.985Z,101039.25
2023-12-09T07:33:20.684Z,101042.16
2023-12-09T07:35:50.388Z,101038.22
2023-12-09T07:38:19.934Z,101036.25
2023-12-09T07:40:52.461Z,101036.66
2023-12-09T07:43:22.015Z,101026.19
2023-12-09T07:45:51.637Z,101021.09
2023-12-09T07:48:21.453Z,101020.03
2023-12-09T07:50:51.081Z,101013.53
2023-12-09T07:53:20.612Z,101011.63
2023-12-09T07:55:52.769Z,101012.63
2023-12-09T07:58:23.618Z,101005.97
2023-12-09T08:00:54.186Z,101009.00
2023-12-09T08:03:23.871Z,101002.59
2023-12-09T08:05:53.535Z,101011.81
2023-12-09T08:08:23.080Z,101003.19
2023-12-09T08:10:55.179Z,100996.69
2023-12-09T08:13:24.782Z,100992.34
2023-12-09T08:15:54.354Z,100997.19
2023-12-09T08:18:24.202Z,100991.69
2023-12-09T08:20:54.182Z,100996.38
2023-12-09T08:23:23.730Z,101001.47
2023-12-09T08:25:56.375Z,101005.78
2023-12-09T08:28:28.760Z,101005.25
2023-12-09T08:30:58.440Z,101003.94
2023-12-09T08:33:28.052Z,100999.06
2023-12-09T08:35:57.814Z,101003.69
2023-12-09T08:38:27.363Z,101007.28
2023-12-09T08:40:59.791Z,101013.31
2023-12-09T08:43:29.347Z,101009.84
2023-12-09T08:45:58.893Z,101011.63
2023-12-09T08:48:28.628Z,101020.19
2023-12-09T08:50:58.298Z,101020.06
2023-12-09T08:53:27.840Z,101017.72
2023-12-09T08:56:00.059Z,101016.06
2023-12-09T08:58:29.878Z,101008.44
2023-12-09T09:00:59.796Z,101004.44
2023-12-09T09:03:29.612Z,100998.91
2023-12-09T09:05:59.338Z,101008.09
2023-12-09T09:08:28.972Z,101012.22
2023-12-09T09:11:01.422Z,101004.22
2023-12-09T09:13:31.732Z,101007.91
2023-12-09T09:16:01.308Z,101007.13
2023-12-09T09:18:30.991Z,100995.13
2023-12-09T09:21:00.595Z,100990.91
2023-12-09T09:23:30.335Z,100985.41
2023-12-09T09:26:02.557Z,100976.19
2023-12-09T09:28:32.407Z,100976.41
2023-12-09T09:31:01.923Z,100966.66
2023-12-09T09:33:32.251Z,100972.53
2023-12-09T09:36:01.973Z,100960.56
2023-12-09T09:38:31.600Z,100955.69
2023-12-09T09:41:03.908Z,100952.56
2023-12-09T09:43:39.174Z,100947.25
2023-12-09T09:46:09.981Z,100939.81
2023-12-09T09:48:41.208Z,100940.84
2023-12-09T09:51:11.675Z,100925.50
2023-12-09T09:53:59.387Z,100917.19
2023-12-09T09:56:32.452Z,100892.56
2023-12-09T09:59:02.127Z,100888.00
2023-12-09T10:01:32.259Z,100874.69
2023-12-09T10:04:02.619Z,100874.59
2023-12-09T10:06:33.408Z,100861.59
2023-12-09T10:09:03.106Z,100854.81
2023-12-09T10:11:35.250Z,100842.47
2023-12-09T10:14:04.900Z,100829.63
2023-12-09T10:16:34.436Z,100817.88
2023-12-09T10:19:04.496Z,100804.06
2023-12-09T10:21:34.312Z,100794.03
2023-12-09T10:24:03.966Z,100774.72
2023-12-09T10:26:36.128Z,100764.00
2023-12-09T10:29:05.678Z,100750.69
2023-12-09T10:31:36.840Z,100728.97
2023-12-09T10:34:06.852Z,100704.13
2023-12-09T10:36:36.532Z,100690.16
2023-12-09T10:39:10.025Z,100685.47
2023-12-09T10:41:42.212Z,100668.28
2023-12-09T10:44:11.804Z,100668.41
2023-12-09T10:46:41.326Z,100656.81
2023-12-09T10:49:11.132Z,100637.06
2023-12-09T10:51:40.822Z,100623.38
2023-12-09T10:54:10.440Z,100592.94
2023-12-09T10:56:42.582Z,100578.59
2023-12-09T10:59:12.831Z,100557.53
2023-12-09T11:01:42.850Z,100542.22
2023-12-09T11:04:14.211Z,100540.47
2023-12-09T11:06:45.009Z,100521.91
2023-12-09T11:09:15.311Z,100498.66
2023-12-09T11:11:47.909Z,100503.47
2023-12-09T11:14:18.356Z,100486.59
2023-12-09T11:16:47.914Z,100478.13
2023-12-09T11:19:18.707Z,100482.56
2023-12-09T11:21:49.884Z,100473.72
2023-12-09T11:24:21.667Z,100473.44
2023-12-09T11:26:54.933Z,100468.25
2023-12-09T11:29:24.597Z,100466.38
2023-12-09T11:31:54.782Z,100453.91
2023-12-09T11:34:27.666Z,100455.84
2023-12-09T11:36:58.144Z,100447.22
2023-12-09T11:39:28.133Z,100436.91
2023-12-09T11:42:00.864Z,100415.13
2023-12-09T11:44:31.269Z,100414.16
2023-12-09T11:47:00.981Z,100402.06
2023-12-09T11:49:31.209Z,100390.78
2023-12-09T11:52:00.817Z,100375.78
2023-12-09T11:54:30.371Z,100371.19
2023-12-09T11:57:02.582Z,100360.75
2023-12-09T11:59:32.147Z,100344.19
2023-12-09T12:02:02.480Z,100349.34
2023-12-09T12:04:37.494Z,100347.59
2023-12-09T12:07:08.344Z,100332.53
2023-12-09T12:09:38.765Z,100337.72
2023-12-09T12:12:11.566Z,100345.16
2023-12-09T12:14:41.733Z,100344.59
2023-12-09T12:17:13.546Z,100335.94
2023-12-09T12:19:43.922Z,100319.19
2023-12-09T12:22:13.842Z,100299.56
2023-12-09T12:24:46.621Z,100296.50
2023-12-09T12:27:18.964Z,100295.31
2023-12-09T12:29:48.637Z,100284.16
2023-12-09T12:32:18.704Z,100293.78
2023-12-09T12:34:48.936Z,100284.72
2023-12-09T12:37:18.739Z,100269.44
2023-12-09T12:39:48.509Z,100266.97
2023-12-09T12:42:20.847Z,100262.56
2023-12-09T12:44:50.573Z,100254.91
2023-12-09T12:47:20.241Z,100255.69
2023-12-09T12:49:50.084Z,100240.44
2023-12-09T12:52:19.940Z,100246.47
2023-12-09T12:54:49.600Z,100232.19
2023-12-09T12:57:22.013Z,100228.31
2023-12-09T12:59:52.795Z,100219.84
2023-12-09T13:02:23.651Z,100215.13
2023-12-09T13:04:53.697Z,100213.13
2023-12-09T13:07:23.419Z,100185.88
2023-12-09T13:09:53.652Z,100187.25
2023-12-09T13:12:26.212Z,100171.41
2023-12-09T13:14:56.105Z,100160.69
2023-12-09T13:17:25.952Z,100161.59
2023-12-09T13:19:55.734Z,100166.06
2023-12-09T13:22:25.642Z,100161.38
2023-12-09T13:24:55.830Z,100151.00
2023-12-09T13:27:28.336Z,100152.94
2023-12-09T13:29:58.004Z,100150.59
2023-12-09T13:32:27.989Z,100146.13
2023-12-09T13:34:58.025Z,100160.97
2023-12-09T13:37:28.907Z,100148.09
2023-12-09T13:39:58.840Z,100136.63
2023-12-09T13:42:31.637Z,100134.56
2023-12-09T13:45:01.591Z,100136.31
2023-12-09T13:47:31.402Z,100133.84
2023-12-09T13:50:01.116Z,100131.16
2023-12-09T13:52:33.342Z,100134.81
2023-12-09T13:55:04.355Z,100134.72
2023-12-09T13:57:36.946Z,100120.22
2023-12-09T14:00:09.570Z,100116.47
2023-12-09T14:02:41.423Z,100108.63
2023-12-09T14:05:13.317Z,100107.47
2023-12-09T14:07:44.677Z,100096.69
2023-12-09T14:10:14.482Z,100082.44
2023-12-09T14:12:48.976Z,100088.94
2023-12-09T14:15:18.749Z,100079.22
2023-12-09T14:17:48.553Z,100070.56
2023-12-09T14:20:19.123Z,100063.91
2023-12-09T14:22:49.031Z,100056.16
2023-12-09T14:25:19.030Z,100050.97
2023-12-09T14:27:51.398Z,100042.81
2023-12-09T14:30:22.269Z,100040.75
2023-12-09T14:32:52.071Z,100032.19
2023-12-09T14:35:21.959Z,100020.72
2023-12-09T14:37:52.052Z,100016.44
2023-12-09T14:40:21.741Z,100002.09
2023-12-09T14:42:54.053Z,99992.97
2023-12-09T14:45:24.748Z,99991.19
2023-12-09T14:48:01.552Z,99969.63
2023-12-09T14:50:37.031Z,99955.94
2023-12-09T14:53:06.829Z,99946.19
2023-12-09T14:55:36.570Z,99947.03
2023-12-09T14:58:08.953Z,99931.59
2023-12-09T15:00:38.731Z,99924.38
2023-12-09T15:03:08.736Z,99912.94
2023-12-09T15:05:38.550Z,99890.69
2023-12-09T15:08:08.896Z,99886.22
2023-12-09T15:10:38.596Z,99876.53
2023-12-09T15:13:10.872Z,99881.97
2023-12-09T15:15:40.615Z,99881.97
2023-12-09T15:18:12.678Z,99875.38
2023-12-09T15:20:42.826Z,99862.53
2023-12-09T15:23:12.476Z,99849.09
2023-12-09T15:25:42.198Z,99845.50
2023-12-09T15:28:15.334Z,99834.69
2023-12-09T15:30:45.042Z,99829.94
2023-12-09T15:33:14.848Z,99815.44
2023-12-09T15:35:44.711Z,99820.28
2023-12-09T15:38:14.943Z,99810.78
2023-12-09T15:40:46.504Z,99814.53
2023-12-09T15:43:19.984Z,99812.69
2023-12-09T15:45:50.516Z,99801.09
2023-12-09T15:48:20.623Z,99780.81
2023-12-09T15:50:50.422Z,99767.00
2023-12-09T15:53:20.112Z,99750.09
2023-12-09T15:55:49.800Z,99748.00
2023-12-09T15:58:22.064Z,99751.22
2023-12-09T16:00:51.857Z,99745.16
2023-12-09T16:03:21.614Z,99741.16
2023-12-09T16:05:51.361Z,99728.31
2023-12-09T16:08:21.029Z,99720.50
2023-12-09T16:10:50.669Z,99705.81
2023-12-09T16:13:23.182Z,99707.75
2023-12-09T16:15:52.997Z,99698.97
2023-12-09T16:18:22.909Z,99699.97
2023-12-09T16:20:52.940Z,99704.56
2023-12-09T16:23:22.604Z,99686.47
2023-12-09T16:25:52.330Z,99685.34
2023-12-09T16:28:24.677Z,99677.31
2023-12-09T16:30:55.152Z,99672.50
2023-12-09T16:33:24.976Z,99663.09
2023-12-09T16:35:54.805Z,99659.84
2023-12-09T16:38:24.515Z,99654.84
2023-12-09T16:40:54.247Z,99647.34
2023-12-09T16:43:26.542Z,99634.59
2023-12-09T16:45:57.194Z,99635.25
2023-12-09T16:48:27.041Z,99639.53
2023-12-09T16:50:56.858Z,99643.69
2023-12-09T16:53:26.555Z,99641.00
2023-12-09T16:55:56.724Z,99638.91
2023-12-09T16:58:28.994Z,99630.31
2023-12-09T17:00:58.787Z,99604.66
2023-12-09T17:03:28.718Z,99587.81
2023-12-09T17:05:58.532Z,99580.19
2023-12-09T17:08:30.530Z,99574.53
2023-12-09T17:11:02.689Z,99566.09
2023-12-09T17:13:34.971Z,99565.44
2023-12-09T17:16:05.089Z,99548.53
2023-12-09T17:18:35.022Z,99536.59
2023-12-09T17:21:04.827Z,99527.22
2023-12-09T17:23:38.629Z,99526.56
2023-12-09T17:26:10.101Z,99516.06
2023-12-09T17:28:43.001Z,99494.06
2023-12-09T17:31:12.766Z,99485.47
2023-12-09T17:33:42.935Z,99491.41
2023-12-09T17:36:13.143Z,99479.34
2023-12-09T17:38:42.875Z,99456.13
2023-12-09T17:41:12.624Z,99449.78
2023-12-09T17:43:45.194Z,99444.50
2023-12-09T17:46:14.971Z,99423.66
2023-12-09T17:48:44.738Z,99416.06
2023-12-09T17:51:14.526Z,99406.63
2023-12-09T17:53:44.798Z,99402.97
2023-12-09T17:56:14.486Z,99390.72
2023-12-09T17:58:49.269Z,99388.94
2023-12-09T18:01:19.030Z,99376.19
2023-12-09T18:03:48.927Z,99374.66
2023-12-09T18:06:18.826Z,99372.00
2023-12-09T18:08:48.601Z,99364.56
2023-12-09T18:11:18.341Z,99356.84
2023-12-09T18:13:50.637Z,99358.22
2023-12-09T18:16:21.710Z,99347.53
2023-12-09T18:18:51.453Z,99332.16
2023-12-09T18:21:25.096Z,99322.97
2023-12-09T18:23:55.419Z,99316.84
2023-12-09T18:26:25.331Z,99304.84
2023-12-09T18:28:57.622Z,99301.56
2023-12-09T18:31:27.332Z,99299.28
2023-12-09T18:33:57.593Z,99286.22
2023-12-09T18:36:27.529Z,99289.19
2023-12-09T18:38:57.351Z,99283.97
2023-12-09T18:41:27.050Z,99292.78
2023-12-09T18:43:59.709Z,99284.19
2023-12-09T18:46:30.004Z,99267.94
2023-12-09T18:48:59.991Z,99267.88
2023-12-09T18:51:29.854Z,99258.31
2023-12-09T18:53:59.556Z,99251.47
2023-12-09T18:56:29.227Z,99256.28
2023-12-09T18:59:01.485Z,99241.00
2023-12-09T19:01:31.445Z,99239.91
2023-12-09T19:04:03.496Z,99245.94
2023-12-09T19:06:42.210Z,99245.94
2023-12-09T19:09:19.321Z,99238.44
2023-12-09T19:11:48.977Z,99249.75
2023-12-09T19:14:21.281Z,99240.41
2023-12-09T19:16:50.985Z,99243.03
2023-12-09T19:19:23.372Z,99241.13
2023-12-09T19:21:53.319Z,99239.56
2023-12-09T19:24:23.102Z,99240.13
2023-12-09T19:26:53.156Z,99228.63
2023-12-09T19:29:25.459Z,99221.25
2023-12-09T19:31:55.462Z,99227.53
2023-12-09T19:34:25.780Z,99226.00
2023-12-09T19:36:55.739Z,99227.31
2023-12-09T19:39:25.467Z,99236.13
2023-12-09T19:41:55.395Z,99240.41
2023-12-09T19:44:27.776Z,99248.13
2023-12-09T19:46:57.484Z,99255.47
2023-12-09T19:49:27.389Z,99248.03
2023-12-09T19:51:57.169Z,99237.50
2023-12-09T19:54:26.994Z,99232.16
2023-12-09T19:56:56.698Z,99241.34
2023-12-09T19:59:28.991Z,99261.59
2023-12-09T20:01:59.106Z,99268.94
2023-12-09T20:04:28.913Z,99281.81
2023-12-09T20:06:58.673Z,99301.38
2023-12-09T20:09:28.553Z,99306.47
2023-12-09T20:11:58.349Z,99322.56
2023-12-09T20:14:30.667Z,99326.72
2023-12-09T20:17:00.338Z,99349.56
2023-12-09T20:19:30.130Z,99353.63
2023-12-09T20:21:59.852Z,99376.72
2023-12-09T20:24:29.600Z,99390.25
2023-12-09T20:26:59.418Z,99394.47
2023-12-09T20:29:31.723Z,99413.16
2023-12-09T20:32:01.553Z,99428.41
2023-12-09T20:34:31.391Z,99445.53
2023-12-09T20:37:02.593Z,99443.59
2023-12-09T20:39:32.603Z,99443.41
2023-12-09T20:42:02.298Z,99444.41
2023-12-09T20:44:34.659Z,99456.25
2023-12-09T20:47:04.419Z,99450.44
2023-12-09T20:49:34.173Z,99466.53
2023-12-09T20:52:03.834Z,99482.69
2023-12-09T20:54:34.031Z,99486.09
2023-12-09T20:57:03.806Z,99496.47
2023-12-09T20:59:36.136Z,99489.78
2023-12-09T21:02:05.983Z,99495.50
2023-12-09T21:04:35.717Z,99495.59
2023-12-09T21:07:05.523Z,99501.00
2023-12-09T21:09:35.265Z,99502.75
2023-12-09T21:12:04.938Z,99492.66
2023-12-09T21:14:38.241Z,99511.50
2023-12-09T21:17:07.938Z,99511.59
2023-12-09T21:19:38.817Z,99510.00
2023-12-09T21:22:10.051Z,99512.56
2023-12-09T21:24:41.132Z,99510.81
2023-12-09T21:27:10.922Z,99511.69
2023-12-09T21:29:43.400Z,99516.13
2023-12-09T21:32:13.131Z,99511.84
2023-12-09T21:34:42.967Z,99505.78
2023-12-09T21:37:12.802Z,99515.09
2023-12-09T21:39:42.498Z,99508.66
2023-12-09T21:42:12.224Z,99520.53
2023-12-09T21:44:46.233Z,99526.75
2023-12-09T21:47:16.426Z,99523.47
2023-12-09T21:49:46.187Z,99509.84
2023-12-09T21:52:16.667Z,99518.47
2023-12-09T21:54:46.369Z,99526.03
2023-12-09T21:57:16.215Z,99523.38
2023-12-09T21:59:48.589Z,99522.66
2023-12-09T22:02:18.278Z,99504.91
2023-12-09T22:04:48.068Z,99504.19
2023-12-09T22:07:17.718Z,99496.59
2023-12-09T22:09:47.439Z,99492.53
2023-12-09T22:12:17.226Z,99492.50
2023-12-09T22:14:49.641Z,99489.28
2023-12-09T22:17:19.500Z,99478.84
2023-12-09T22:19:49.275Z,99486.50
2023-12-09T22:22:18.941Z,99477.19
2023-12-09T22:24:48.758Z,99465.47
2023-12-09T22:27:19.317Z,99471.44
2023-12-09T22:29:51.588Z,99459.34
2023-12-09T22:32:25.991Z,99449.06
2023-12-09T22:34:56.113Z,99453.28
2023-12-09T22:37:25.873Z,99461.81
2023-12-09T22:39:55.803Z,99465.25
2023-12-09T22:42:26.052Z,99491.50
2023-12-09T22:44:58.558Z,99497.50
2023-12-09T22:47:28.930Z,99515.97
2023-12-09T22:49:58.677Z,99511.75
2023-12-09T22:52:28.530Z,99515.13
2023-12-09T22:54:58.285Z,99514.31
2023-12-09T22:57:27.995Z,99514.31
2023-12-09T23:00:00.515Z,99498.06
2023-12-09T23:02:30.371Z,99495.53
2023-12-09T23:05:00.233Z,99484.25
2023-12-09T23:07:29.928Z,99485.00
2023-12-09T23:09:59.721Z,99470.44
2023-12-09T23:12:29.704Z,99464.31
2023-12-09T23:15:02.132Z,99449.16
2023-12-09T23:17:32.007Z,99445.66
2023-12-09T23:20:01.769Z,99443.44
2023-12-09T23:22:31.630Z,99445.19
2023-12-09T23:25:01.428Z,99453.31
2023-12-09T23:27:31.158Z,99443.75
2023-12-09T23:30:03.441Z,99444.56
2023-12-09T23:32:33.420Z,99440.97
2023-12-09T23:35:03.322Z,99439.47
2023-12-09T23:37:33.053Z,99434.97
2023-12-09T23:40:02.755Z,99435.06
2023-12-09T23:42:32.846Z,99435.88
2023-12-09T23:45:05.361Z,99428.22
2023-12-09T23:47:35.133Z,99436.59
2023-12-09T23:50:04.885Z,99432.28
2023-12-09T23:52:34.556Z,99446.78
2023-12-09T23:55:04.349Z,99447.41
2023-12-09T23:57:34.130Z,99445.34
